Hachinohe, Japan

11:07 AM JST on August 29, 2014 (GMT +0900)
Aomori | Change Station
CLOSE
Current Station
Airport
Location: Aomori Airport,
Elevation: 659 ft
Nearby Weather Stations

Elev 659 ft 40.73 °N, 140.69 °E | Updated 7 minutes ago

Scattered Clouds
Scattered Clouds
73 °F
Feels Like 73 °F
N
6
Wind Variable Wind from NE

Today
High -- | Low -- °F
--% Chance of Precip.
Yesterday
High -- | Low -- °F
Precip. -- in
4:57 AM 6:11 PM
Waxing Crescent, 11% visible
Pressure 30.01 in
Visibility 6.2 miles
Clouds Few 1500 ft
Scattered Clouds 4000 ft
Dew Point 64 °F
Humidity 73%
Rainfall 0.00 in
Snow Depth Not available.
UV 6 out of 12
Pollen Not available.
Air Quality Not available.
Flu Activity Not available.
METAR RJSA 290200Z 04005KT 350V120 9999 FEW015 SCT040 23/18 Q1016

More Conditions Fewer Conditions

Pressure 30.01 in
Visibility 6.2 miles
Clouds Few 1500 ft
Scattered Clouds 4000 ft
Dew Point 64 °F
Humidity 73%
Rainfall 0.00 in
Snow Depth Not available.
UV 6 out of 12
Pollen Not available.
Air Quality Not available.
Flu Activity Not available.
METAR RJSA 290200Z 04005KT 350V120 9999 FEW015 SCT040 23/18 Q1016

More Conditions Fewer Conditions

10-Day Weather Forecast

Almanac

Astronomy

Aug. 29, 2014 Rise Set
Actual Time 4:57 AM JST 6:11 PM JST
Civil Twilight 4:29 AM JST 6:39 PM JST
Nautical Twilight 3:55 AM JST 7:13 PM JST
Astronomical Twilight 3:19 AM JST 7:48 PM JST
Moon 8:11 AM JST 7:46 PM JST
Length of Visible Light 14h 10m
Length of Day
13h 14m
Tomorrow will be 2m 33s shorter.
Waxing Crescent, 11% of the Moon is Illuminated
Aug 28
Waxing Crescent
Sep 2
First Quarter
Sep 8
Full
Sep 15
Last Quarter
Sep 24
New

Yesterday's Extremes

Country Highs Country Lows

Community

WunderPhotos

Upload Photos

1,748,124 photos uploaded!

Nearby

Snow Depth

Not available.

Earthquake Activity

City Distance Mag. Time & Date
No recent earthquake activity has been reported nearby.
Minimum magnitude displayed is 2.5.

Coastal Water Temperatures

Place Temperature
No Stations Reporting

Nearby Weather Stations